West Little Rock, Arkansas
Current Conditions -  °F | °C
As of 3:53 AM on Sunday 23 Nov 2014 (Local Time) from KLIT Reporting Station
Light Rain Light Rain  
Wind Chill: 57°   Ceiling: 5500
Heat Index: 57°   Visibility: 7mi
Dew Point: 53°   Wind: 15mph
Humidity: 87%   Direction: 130°SE
Pressure: 29.71"   Gusts: 28mph
Location:  34.78°N, 92.27°W
Report Text: KLIT 230953Z 13013G24KT 7SM -RA SCT008 BKN055 OVC095 14/12 A2971 RMK AO2 SLP063 P0005 T01390117
Loading
Personal Weather Stations






























Interactive Weather Map New forecast layout! Learn more

10-Day Weather Forecast

Advertisements
Track Severe Weather on mobile